Time,TemperatureF,DewpointF,PressureIn,WindDirection,WindDirectionDegrees,WindSpeedMPH,WindSpeedGustMPH,Humidity,HourlyPrecipIn,Conditions,Clouds,dailyrainin,SolarRadiationWatts/m^2,SoftwareType,DateUTC
2013-04-08 00:03:00,45.7,24.5,29.55,West,275,9.0,14.0,43,0.00,,CLR,0.00,0.00,VWS V14.01,2013-04-08 07:03:00,
2013-04-08 00:08:00,45.8,24.6,29.54,West,279,13.0,15.0,43,0.00,,CLR,0.00,0.00,VWS V14.01,2013-04-08 07:08:00,
2013-04-08 00:13:00,45.9,24.7,29.54,WNW,289,11.0,13.0,43,0.00,,CLR,0.00,0.00,VWS V14.01,2013-04-08 07:13:00,
2013-04-08 00:18:00,45.9,24.7,29.54,NNW,330,4.0,15.0,43,0.00,,CLR,0.00,0.00,VWS V14.01,2013-04-08 07:18:00,
2013-04-08 00:23:00,46.0,24.8,29.54,WNW,296,7.0,14.0,43,0.00,,FEW110,0.00,0.00,VWS V14.01,2013-04-08 07:23:00,
2013-04-08 00:28:00,46.0,25.3,29.54,NW,310,5.0,12.0,44,0.00,,FEW110,0.00,0.00,VWS V14.01,2013-04-08 07:28:00,
2013-04-08 00:33:00,45.9,25.2,29.54,NW,317,9.0,11.0,44,0.00,,FEW110,0.00,0.00,VWS V14.01,2013-04-08 07:33:00,
2013-04-08 00:38:00,45.7,26.1,29.54,NW,311,11.0,14.0,46,0.00,,FEW110,0.00,0.00,VWS V14.01,2013-04-08 07:38:00,
2013-04-08 00:43:00,45.6,27.1,29.54,NW,306,7.0,10.0,48,0.00,,FEW110,0.00,0.00,VWS V14.01,2013-04-08 07:43:00,
2013-04-08 00:48:00,45.4,27.4,29.54,West,267,8.0,16.0,49,0.00,,FEW110,0.00,0.00,VWS V14.01,2013-04-08 07:48:00,
2013-04-08 00:53:00,45.2,27.7,29.53,West,273,3.0,10.0,50,0.00,,FEW110,0.00,0.00,VWS V14.01,2013-04-08 07:53:00,
2013-04-08 00:58:00,45.1,28.1,29.53,West,279,8.0,13.0,51,0.00,,FEW110,0.00,0.00,VWS V14.01,2013-04-08 07:58:00,
2013-04-08 01:03:00,44.9,28.4,29.53,WNW,298,11.0,12.0,52,0.00,,OVC095,0.00,0.00,VWS V14.01,2013-04-08 08:03:00,
2013-04-08 01:08:00,44.6,28.1,29.53,NW,313,3.0,11.0,52,0.00,,OVC095,0.00,0.00,VWS V14.01,2013-04-08 08:08:00,
2013-04-08 01:13:00,44.4,28.4,29.52,NNW,333,2.0,11.0,53,0.00,,OVC095,0.00,0.00,VWS V14.01,2013-04-08 08:13:00,
2013-04-08 01:18:00,44.3,28.7,29.52,WNW,294,2.0,9.0,54,0.00,,OVC095,0.00,0.00,VWS V14.01,2013-04-08 08:18:00,
2013-04-08 01:23:00,44.1,29.0,29.52,NW,310,7.0,7.0,55,0.00,,OVC095,0.00,0.00,VWS V14.01,2013-04-08 08:23:00,
2013-04-08 01:28:00,43.9,29.2,29.52,WNW,290,5.0,7.0,56,0.00,,OVC095,0.00,0.00,VWS V14.01,2013-04-08 08:28:00,
2013-04-08 01:33:00,43.7,29.0,29.52,WNW,288,7.0,10.0,56,0.00,,OVC095,0.00,0.00,VWS V14.01,2013-04-08 08:33:00,
2013-04-08 01:38:00,43.6,29.4,29.51,WNW,300,4.0,12.0,57,0.00,,OVC095,0.00,0.00,VWS V14.01,2013-04-08 08:38:00,
2013-04-08 01:43:00,43.5,29.7,29.51,West,265,7.0,10.0,58,0.00,,OVC095,0.00,0.00,VWS V14.01,2013-04-08 08:43:00,
2013-04-08 01:48:00,43.4,29.6,29.51,WNW,290,4.0,8.0,58,0.00,,OVC095,0.00,0.00,VWS V14.01,2013-04-08 08:48:00,
2013-04-08 01:53:00,43.3,29.5,29.51,WNW,294,6.0,10.0,58,0.00,,OVC095,0.00,0.00,VWS V14.01,2013-04-08 08:53:00,
2013-04-08 01:58:00,43.3,30.0,29.51,WNW,287,5.0,10.0,59,0.00,,OVC095,0.00,0.00,VWS V14.01,2013-04-08 08:58:00,
2013-04-08 02:03:00,43.2,29.9,29.51,West,264,7.0,10.0,59,0.00,,OVC095,0.00,0.00,VWS V14.01,2013-04-08 09:03:00,
2013-04-08 02:09:00,43.1,30.2,29.51,West,275,9.0,13.0,60,0.00,,OVC065,0.00,0.00,VWS V14.01,2013-04-08 09:09:00,
2013-04-08 02:14:00,43.0,30.1,29.51,West,267,7.0,11.0,60,0.00,,OVC065,0.00,0.00,VWS V14.01,2013-04-08 09:14:00,
2013-04-08 02:19:00,42.9,30.0,29.51,WSW,253,8.0,10.0,60,0.00,,OVC065,0.00,0.00,VWS V14.01,2013-04-08 09:19:00,
2013-04-08 02:24:00,43.0,30.1,29.51,NNW,342,12.0,12.0,60,0.00,,OVC065,0.00,0.00,VWS V14.01,2013-04-08 09:24:00,
2013-04-08 02:29:00,42.3,31.8,29.51,North,10,9.0,14.0,66,0.00,,OVC065,0.00,0.00,VWS V14.01,2013-04-08 09:29:00,
2013-04-08 02:34:00,41.8,32.4,29.51,NNE,24,8.0,11.0,69,0.00,,OVC065,0.00,0.00,VWS V14.01,2013-04-08 09:34:00,
2013-04-08 02:39:00,41.5,32.5,29.51,NNE,13,5.0,10.0,70,0.00,,OVC065,0.00,0.00,VWS V14.01,2013-04-08 09:39:00,
2013-04-08 02:44:00,41.5,32.5,29.51,NNE,14,5.0,7.0,70,0.00,,OVC065,0.00,0.00,VWS V14.01,2013-04-08 09:44:00,
2013-04-08 02:49:00,41.5,32.8,29.50,NE,42,3.0,5.0,71,0.00,,OVC065,0.00,0.00,VWS V14.01,2013-04-08 09:49:00,
2013-04-08 02:54:00,41.5,32.8,29.50,NNE,22,1.0,4.0,71,0.00,,OVC065,0.00,0.00,VWS V14.01,2013-04-08 09:54:00,
2013-04-08 02:59:00,41.5,33.2,29.50,NNW,346,3.0,4.0,72,0.00,,OVC065,0.00,0.00,VWS V14.01,2013-04-08 09:59:00,
2013-04-08 03:04:00,41.4,33.1,29.51,NNW,347,7.0,10.0,72,0.00,,-RA,0.00,0.00,VWS V14.01,2013-04-08 10:04:00,
2013-04-08 03:09:00,40.7,33.1,29.51,NNW,338,9.0,12.0,74,0.00,,-RA,0.00,0.00,VWS V14.01,2013-04-08 10:09:00,
2013-04-08 03:14:00,40.2,32.9,29.51,NW,325,8.0,11.0,75,0.00,,-RA,0.00,0.00,VWS V14.01,2013-04-08 10:14:00,
2013-04-08 03:19:00,40.0,33.4,29.51,NNE,15,7.0,12.0,77,0.00,,-RA,0.00,0.00,VWS V14.01,2013-04-08 10:19:00,
2013-04-08 03:24:00,39.8,33.5,29.50,NNW,339,4.0,8.0,78,0.00,,-RA,0.00,0.00,VWS V14.01,2013-04-08 10:24:00,
2013-04-08 03:29:00,39.8,33.8,29.50,NNW,333,4.0,8.0,79,0.00,,-RA,0.00,0.00,VWS V14.01,2013-04-08 10:29:00,
2013-04-08 03:34:00,39.7,33.7,29.50,North,360,3.0,8.0,79,0.00,,-RA,0.00,0.00,VWS V14.01,2013-04-08 10:34:00,
2013-04-08 03:39:00,39.6,33.6,29.51,NNW,345,3.0,7.0,79,0.00,,-RA,0.00,0.00,VWS V14.01,2013-04-08 10:39:00,
2013-04-08 03:44:00,39.6,33.6,29.50,NNW,328,4.0,6.0,79,0.00,,-RA,0.00,0.00,VWS V14.01,2013-04-08 10:44:00,
2013-04-08 03:50:00,39.7,33.7,29.50,North,355,2.0,4.0,79,0.00,,-RA,0.00,0.00,VWS V14.01,2013-04-08 10:50:00,
2013-04-08 03:55:00,39.7,33.7,29.50,NNW,333,2.0,7.0,79,0.00,,-RA,0.00,0.00,VWS V14.01,2013-04-08 10:55:00,
2013-04-08 04:00:00,39.8,33.8,29.50,NNW,348,1.0,4.0,79,0.00,,-RA,0.00,0.00,VWS V14.01,2013-04-08 11:00:00,
2013-04-08 04:05:00,39.7,33.7,29.50,North,355,3.0,7.0,79,0.00,,OVC060,0.00,0.00,VWS V14.01,2013-04-08 11:05:00,
2013-04-08 04:10:00,39.5,33.8,29.51,NNW,336,2.0,6.0,80,0.00,,OVC060,0.00,0.00,VWS V14.01,2013-04-08 11:10:00,
2013-04-08 04:15:00,39.3,33.7,29.51,NNW,327,4.0,8.0,80,0.00,,OVC060,0.00,0.00,VWS V14.01,2013-04-08 11:15:00,
2013-04-08 04:20:00,39.3,33.7,29.51,NNW,344,5.0,9.0,80,0.00,,OVC060,0.00,0.00,VWS V14.01,2013-04-08 11:20:00,
2013-04-08 04:25:00,39.2,33.9,29.51,NNW,329,3.0,8.0,81,0.00,,OVC060,0.00,0.00,VWS V14.01,2013-04-08 11:25:00,
2013-04-08 04:30:00,39.0,33.7,29.51,North,355,5.0,7.0,81,0.00,,OVC060,0.00,0.00,VWS V14.01,2013-04-08 11:30:00,
2013-04-08 04:35:00,38.8,33.8,29.51,NNW,333,4.0,6.0,82,0.00,,OVC060,0.00,0.00,VWS V14.01,2013-04-08 11:35:00,
2013-04-08 04:40:00,38.7,33.7,29.51,NW,321,2.0,5.0,82,0.00,,OVC060,0.00,0.00,VWS V14.01,2013-04-08 11:40:00,
2013-04-08 04:45:00,38.7,33.7,29.51,NNW,330,6.0,9.0,82,0.00,,OVC060,0.00,0.00,VWS V14.01,2013-04-08 11:45:00,
2013-04-08 04:50:00,38.8,33.2,29.51,NW,325,9.0,11.0,80,0.00,,OVC060,0.00,0.00,VWS V14.01,2013-04-08 11:50:00,
2013-04-08 04:55:00,38.9,32.6,29.51,NW,320,11.0,14.0,78,0.00,,OVC060,0.00,0.00,VWS V14.01,2013-04-08 11:55:00,
2013-04-08 05:00:00,39.0,32.1,29.51,WNW,288,12.0,18.0,76,0.00,,OVC060,0.00,0.00,VWS V14.01,2013-04-08 12:00:00,
2013-04-08 05:05:00,38.9,31.7,29.51,NW,309,14.0,19.0,75,0.00,,-RA,0.00,0.00,VWS V14.01,2013-04-08 12:05:00,
2013-04-08 05:10:00,38.8,30.9,29.51,WNW,300,9.0,20.0,73,0.00,,-RA,0.00,0.00,VWS V14.01,2013-04-08 12:10:00,
2013-04-08 05:15:00,38.8,30.9,29.52,NW,321,14.0,24.0,73,0.00,,-RA,0.00,0.00,VWS V14.01,2013-04-08 12:15:00,
2013-04-08 05:20:00,38.6,30.7,29.52,NNW,333,11.0,17.0,73,0.00,,-RA,0.00,0.00,VWS V14.01,2013-04-08 12:20:00,
2013-04-08 05:25:00,38.6,30.7,29.52,NW,306,14.0,19.0,73,0.00,,-RA,0.00,0.00,VWS V14.01,2013-04-08 12:25:00,
2013-04-08 05:30:00,38.4,30.5,29.52,WNW,286,19.0,19.0,73,0.00,,-RA,0.00,0.00,VWS V14.01,2013-04-08 12:30:00,
2013-04-08 05:35:00,38.5,30.6,29.52,WNW,299,17.0,19.0,73,0.00,,-RA,0.00,0.00,VWS V14.01,2013-04-08 12:35:00,
2013-04-08 05:40:00,38.4,30.2,29.52,NNW,335,12.0,14.0,72,0.00,,-RA,0.00,0.00,VWS V14.01,2013-04-08 12:40:00,
2013-04-08 05:45:00,38.4,30.2,29.52,NW,315,14.0,23.0,72,0.00,,-RA,0.00,0.00,VWS V14.01,2013-04-08 12:45:00,
2013-04-08 05:50:00,38.2,30.3,29.52,NNW,339,16.0,23.0,73,0.00,,-RA,0.00,0.00,VWS V14.01,2013-04-08 12:50:00,
2013-04-08 05:55:00,38.1,30.2,29.52,NNW,338,17.0,17.0,73,0.00,,-RA,0.00,0.00,VWS V14.01,2013-04-08 12:55:00,
2013-04-08 06:00:00,38.0,30.5,29.53,NNW,331,14.0,17.0,74,0.00,,-RA,0.00,0.00,VWS V14.01,2013-04-08 13:00:00,
2013-04-08 06:05:00,38.0,30.8,29.53,NW,307,12.0,14.0,75,0.00,,OVC050,0.00,0.00,VWS V14.01,2013-04-08 13:05:00,
2013-04-08 06:10:00,37.9,30.7,29.53,WNW,295,13.0,18.0,75,0.00,,OVC050,0.00,0.00,VWS V14.01,2013-04-08 13:10:00,
2013-04-08 06:15:00,37.7,30.5,29.54,WNW,302,10.0,11.0,75,0.00,,OVC050,0.00,0.00,VWS V14.01,2013-04-08 13:15:00,
2013-04-08 06:20:00,37.7,30.5,29.54,NNW,332,10.0,11.0,75,0.00,,OVC065,0.00,0.00,VWS V14.01,2013-04-08 13:20:00,
2013-04-08 06:25:00,37.9,30.7,29.55,NNW,334,9.0,10.0,75,0.00,,OVC065,0.00,0.00,VWS V14.01,2013-04-08 13:25:00,
2013-04-08 06:30:00,38.4,30.5,29.56,NNW,340,19.0,19.0,73,0.00,,OVC065,0.00,0.00,VWS V14.01,2013-04-08 13:30:00,
2013-04-08 06:35:00,38.0,30.5,29.56,NNW,329,16.0,20.0,74,0.00,,OVC065,0.00,0.00,VWS V14.01,2013-04-08 13:35:00,
2013-04-08 06:40:00,37.7,30.5,29.57,NNW,336,12.0,14.0,75,0.00,,OVC065,0.00,0.00,VWS V14.01,2013-04-08 13:40:00,
2013-04-08 06:45:00,37.6,30.7,29.57,WNW,294,7.0,11.0,76,0.00,,OVC065,0.00,0.00,VWS V14.01,2013-04-08 13:45:00,
2013-04-08 06:50:00,37.5,31.0,29.58,NW,324,9.0,13.0,77,0.00,,-RA,0.00,0.00,VWS V14.01,2013-04-08 13:50:00,
2013-04-08 06:55:00,37.1,30.9,29.58,North,5,9.0,10.0,78,0.00,,-RA,0.00,0.00,VWS V14.01,2013-04-08 13:55:00,
2013-04-08 07:00:00,36.9,30.7,29.59,NNW,339,11.0,15.0,78,0.00,,OVC050,0.00,0.00,VWS V14.01,2013-04-08 14:00:00,
2013-04-08 07:05:00,36.6,30.7,29.59,NNW,340,7.0,10.0,79,0.00,,,0.00,5.00,VWS V14.01,2013-04-08 14:05:00,
2013-04-08 07:10:00,36.6,31.0,29.59,North,355,12.0,17.0,80,0.00,,,0.00,7.00,VWS V14.01,2013-04-08 14:10:00,
2013-04-08 07:15:00,36.6,31.0,29.60,NW,313,14.0,14.0,80,0.00,,,0.00,12.00,VWS V14.01,2013-04-08 14:15:00,
2013-04-08 07:20:00,36.6,30.7,29.60,NNW,347,13.0,17.0,79,0.00,,,0.00,23.00,VWS V14.01,2013-04-08 14:20:00,
2013-04-08 07:25:00,36.6,30.4,29.60,NW,320,14.0,17.0,78,0.00,,,0.00,32.00,VWS V14.01,2013-04-08 14:25:00,
2013-04-08 07:31:00,36.7,30.5,29.61,NW,314,14.0,18.0,78,0.00,,,0.00,37.00,VWS V14.01,2013-04-08 14:31:00,
2013-04-08 07:36:00,36.8,30.3,29.62,NNW,329,12.0,18.0,77,0.00,,,0.00,37.00,VWS V14.01,2013-04-08 14:36:00,
2013-04-08 07:41:00,36.6,29.8,29.62,NNW,342,13.0,17.0,76,0.00,,,0.00,35.00,VWS V14.01,2013-04-08 14:41:00,
2013-04-08 07:46:00,36.7,29.5,29.62,North,5,13.0,18.0,75,0.00,,,0.00,40.00,VWS V14.01,2013-04-08 14:46:00,
2013-04-08 07:51:00,36.6,29.1,29.63,North,360,14.0,22.0,74,0.00,,,0.00,39.00,VWS V14.01,2013-04-08 14:51:00,
2013-04-08 07:56:00,36.5,29.0,29.63,NNW,345,11.0,18.0,74,0.00,,,0.00,37.00,VWS V14.01,2013-04-08 14:56:00,
2013-04-08 08:01:00,36.4,28.9,29.64,NW,325,19.0,19.0,74,0.00,,,0.00,39.00,VWS V14.01,2013-04-08 15:01:00,
2013-04-08 08:06:00,36.4,29.6,29.64,NNW,337,5.0,14.0,76,0.00,,,0.00,37.00,VWS V14.01,2013-04-08 15:06:00,
2013-04-08 08:11:00,35.9,29.4,29.64,NNW,344,8.0,14.0,77,0.00,,,0.00,47.00,VWS V14.01,2013-04-08 15:11:00,
2013-04-08 08:16:00,35.6,29.4,29.65,North,355,17.0,21.0,78,0.00,,,0.00,44.00,VWS V14.01,2013-04-08 15:16:00,
2013-04-08 08:21:00,35.9,29.4,29.65,NNW,343,15.0,19.0,77,0.00,,,0.00,51.00,VWS V14.01,2013-04-08 15:21:00,
2013-04-08 08:26:00,36.1,29.6,29.66,North,5,12.0,17.0,77,0.00,,,0.00,54.00,VWS V14.01,2013-04-08 15:26:00,
2013-04-08 08:31:00,36.1,29.3,29.66,NNW,347,11.0,20.0,76,0.00,,,0.00,60.00,VWS V14.01,2013-04-08 15:31:00,
2013-04-08 08:36:00,36.1,29.0,29.66,North,349,17.0,23.0,75,0.00,,,0.00,65.00,VWS V14.01,2013-04-08 15:36:00,
2013-04-08 08:41:00,36.1,29.0,29.67,NNW,344,17.0,22.0,75,0.00,,,0.00,58.00,VWS V14.01,2013-04-08 15:41:00,
2013-04-08 08:47:00,36.0,29.2,29.67,NNE,30,16.0,19.0,76,0.00,,,0.00,65.00,VWS V14.01,2013-04-08 15:47:00,
2013-04-08 08:52:00,35.7,28.9,29.68,NNW,332,14.0,22.0,76,0.00,,,0.00,60.00,VWS V14.01,2013-04-08 15:52:00,
2013-04-08 08:57:00,35.9,28.8,29.68,North,355,10.0,24.0,75,0.00,,,0.00,58.00,VWS V14.01,2013-04-08 15:57:00,
2013-04-08 09:02:00,35.9,28.8,29.69,NNE,17,11.0,22.0,75,0.00,,,0.00,67.00,VWS V14.01,2013-04-08 16:02:00,
2013-04-08 09:07:00,36.0,28.5,29.69,North,349,15.0,28.0,74,0.00,,,0.00,90.00,VWS V14.01,2013-04-08 16:07:00,
2013-04-08 09:12:00,35.9,28.4,29.70,NNW,347,15.0,23.0,74,0.00,,,0.00,105.00,VWS V14.01,2013-04-08 16:12:00,
2013-04-08 09:17:00,36.3,28.1,29.70,North,351,8.0,24.0,72,0.00,,,0.00,111.00,VWS V14.01,2013-04-08 16:17:00,
2013-04-08 09:22:00,36.4,28.2,29.70,NNW,346,14.0,27.0,72,0.00,,,0.00,144.00,VWS V14.01,2013-04-08 16:22:00,
2013-04-08 09:27:00,36.8,28.3,29.71,NNW,336,19.0,25.0,71,0.00,,,0.00,172.00,VWS V14.01,2013-04-08 16:27:00,
2013-04-08 09:32:00,37.3,28.4,29.71,NNW,340,21.0,24.0,70,0.00,,,0.00,221.00,VWS V14.01,2013-04-08 16:32:00,
2013-04-08 09:37:00,37.4,28.2,29.72,NNW,346,18.0,26.0,69,0.00,,,0.00,206.00,VWS V14.01,2013-04-08 16:37:00,
2013-04-08 09:42:00,37.5,27.9,29.72,NNE,26,15.0,22.0,68,0.00,,,0.00,178.00,VWS V14.01,2013-04-08 16:42:00,
2013-04-08 09:47:00,37.7,27.8,29.73,NW,319,17.0,25.0,67,0.00,,,0.00,181.00,VWS V14.01,2013-04-08 16:47:00,
2013-04-08 09:52:00,37.7,27.4,29.73,North,360,28.0,28.0,66,0.00,,,0.00,183.00,VWS V14.01,2013-04-08 16:52:00,
2013-04-08 09:57:00,37.6,26.9,29.74,NNE,13,21.0,24.0,65,0.00,,,0.00,181.00,VWS V14.01,2013-04-08 16:57:00,
2013-04-08 10:02:00,37.4,26.7,29.74,North,355,19.0,26.0,65,0.00,,,0.00,186.00,VWS V14.01,2013-04-08 17:02:00,
2013-04-08 10:07:00,37.4,26.7,29.75,North,355,24.0,30.0,65,0.00,,,0.00,179.00,VWS V14.01,2013-04-08 17:07:00,
2013-04-08 10:12:00,37.3,26.6,29.75,NNE,20,13.0,28.0,65,0.00,,,0.00,188.00,VWS V14.01,2013-04-08 17:12:00,
2013-04-08 10:17:00,37.4,27.1,29.75,NNW,348,14.0,24.0,66,0.00,,,0.00,181.00,VWS V14.01,2013-04-08 17:17:00,
2013-04-08 10:23:00,37.4,27.1,29.76,North,355,15.0,24.0,66,0.00,,,0.00,204.00,VWS V14.01,2013-04-08 17:23:00,
2013-04-08 10:28:00,37.3,26.6,29.76,NNW,347,12.0,28.0,65,0.00,,,0.00,246.00,VWS V14.01,2013-04-08 17:28:00,
2013-04-08 10:33:00,37.6,27.3,29.77,North,9,9.0,18.0,66,0.00,,,0.00,251.00,VWS V14.01,2013-04-08 17:33:00,
2013-04-08 10:38:00,37.7,27.4,29.77,NE,43,14.0,23.0,66,0.00,,,0.00,279.00,VWS V14.01,2013-04-08 17:38:00,
2013-04-08 10:43:00,38.0,27.3,29.78,NNW,338,19.0,22.0,65,0.00,,,0.00,325.00,VWS V14.01,2013-04-08 17:43:00,
2013-04-08 10:48:00,38.2,27.1,29.78,NNW,339,12.0,24.0,64,0.00,,,0.00,404.00,VWS V14.01,2013-04-08 17:48:00,
2013-04-08 10:53:00,38.5,27.0,29.79,North,350,20.0,29.0,63,0.00,,,0.00,431.00,VWS V14.01,2013-04-08 17:53:00,
2013-04-08 10:58:00,38.9,27.4,29.79,North,355,13.0,22.0,63,0.00,,,0.00,425.00,VWS V14.01,2013-04-08 17:58:00,
2013-04-08 11:03:00,39.3,27.0,29.79,North,355,16.0,25.0,61,0.00,,,0.00,383.00,VWS V14.01,2013-04-08 18:03:00,
2013-04-08 11:08:00,39.5,27.2,29.79,NW,315,20.0,26.0,61,0.00,,,0.00,373.00,VWS V14.01,2013-04-08 18:08:00,
2013-04-08 11:13:00,39.4,27.1,29.80,NNW,344,16.0,22.0,61,0.00,,,0.00,350.00,VWS V14.01,2013-04-08 18:13:00,
2013-04-08 11:18:00,39.5,26.8,29.80,North,355,10.0,21.0,60,0.00,,,0.00,338.00,VWS V14.01,2013-04-08 18:18:00,
2013-04-08 11:23:00,39.9,26.8,29.80,NNW,342,11.0,22.0,59,0.00,,,0.00,385.00,VWS V14.01,2013-04-08 18:23:00,
2013-04-08 11:28:00,40.1,26.5,29.81,NNW,344,18.0,25.0,58,0.00,,,0.00,330.00,VWS V14.01,2013-04-08 18:28:00,
2013-04-08 11:33:00,39.8,26.7,29.81,NNW,333,10.0,22.0,59,0.00,,,0.00,311.00,VWS V14.01,2013-04-08 18:33:00,
2013-04-08 11:38:00,40.0,26.8,29.81,NNE,26,12.0,18.0,59,0.00,,,0.00,309.00,VWS V14.01,2013-04-08 18:38:00,
2013-04-08 11:43:00,39.6,26.5,29.82,North,350,12.0,22.0,59,0.00,,,0.00,265.00,VWS V14.01,2013-04-08 18:43:00,
2013-04-08 11:48:00,38.8,26.5,29.82,North,351,6.0,21.0,61,0.00,,,0.00,227.00,VWS V14.01,2013-04-08 18:48:00,
2013-04-08 11:53:00,38.3,26.4,29.82,NNW,330,19.0,21.0,62,0.00,,,0.00,227.00,VWS V14.01,2013-04-08 18:53:00,
2013-04-08 11:58:00,38.3,26.8,29.82,NW,314,14.0,18.0,63,0.00,,,0.00,251.00,VWS V14.01,2013-04-08 18:58:00,
2013-04-08 12:03:00,38.5,26.6,29.82,North,360,14.0,22.0,62,0.00,,,0.00,301.00,VWS V14.01,2013-04-08 19:03:00,
2013-04-08 12:08:00,39.0,26.7,29.82,NNW,331,9.0,23.0,61,0.00,,,0.00,329.00,VWS V14.01,2013-04-08 19:08:00,
2013-04-08 12:13:00,39.6,26.9,29.83,North,355,11.0,21.0,60,0.00,,,0.00,404.00,VWS V14.01,2013-04-08 19:13:00,
2013-04-08 12:18:00,40.7,26.7,29.82,NNW,341,12.0,18.0,57,0.00,,,0.00,439.00,VWS V14.01,2013-04-08 19:18:00,
2013-04-08 12:23:00,41.0,26.5,29.82,NNW,334,12.0,20.0,56,0.00,,,0.00,485.00,VWS V14.01,2013-04-08 19:23:00,
2013-04-08 12:28:00,41.8,25.9,29.82,NW,317,10.0,22.0,53,0.00,,,0.00,659.00,VWS V14.01,2013-04-08 19:28:00,
2013-04-08 12:33:00,42.7,26.8,29.82,NNW,333,11.0,21.0,53,0.00,,,0.00,679.00,VWS V14.01,2013-04-08 19:33:00,
2013-04-08 12:38:00,43.3,26.9,29.82,North,9,14.0,25.0,52,0.00,,,0.00,898.00,VWS V14.01,2013-04-08 19:38:00,
2013-04-08 12:43:00,44.3,26.9,29.82,North,351,13.0,19.0,50,0.00,,,0.00,900.00,VWS V14.01,2013-04-08 19:43:00,
2013-04-08 12:49:00,44.7,25.7,29.82,NNW,348,13.0,18.0,47,0.00,,,0.00,823.00,VWS V14.01,2013-04-08 19:49:00,
2013-04-08 12:54:00,44.0,25.6,29.82,NNW,332,14.0,19.0,48,0.00,,,0.00,267.00,VWS V14.01,2013-04-08 19:54:00,
2013-04-08 12:59:00,43.9,25.5,29.82,NNE,28,15.0,30.0,48,0.00,,,0.00,346.00,VWS V14.01,2013-04-08 19:59:00,
2013-04-08 13:04:00,44.1,25.2,29.82,North,5,7.0,21.0,47,0.00,,OVC150,0.00,366.00,VWS V14.01,2013-04-08 20:04:00,
2013-04-08 13:09:00,44.0,25.1,29.83,North,360,7.0,17.0,47,0.00,,OVC150,0.00,343.00,VWS V14.01,2013-04-08 20:09:00,
2013-04-08 13:14:00,44.3,25.4,29.83,NNW,334,13.0,21.0,47,0.00,,OVC150,0.00,427.00,VWS V14.01,2013-04-08 20:14:00,
2013-04-08 13:19:00,44.4,25.5,29.83,NNW,331,15.0,21.0,47,0.00,,OVC150,0.00,431.00,VWS V14.01,2013-04-08 20:19:00,
2013-04-08 13:24:00,44.1,24.7,29.83,NNW,342,8.0,23.0,46,0.00,,OVC150,0.00,281.00,VWS V14.01,2013-04-08 20:24:00,
2013-04-08 13:29:00,44.1,24.1,29.83,NW,324,12.0,24.0,45,0.00,,OVC150,0.00,380.00,VWS V14.01,2013-04-08 20:29:00,
2013-04-08 13:34:00,44.1,23.6,29.83,North,5,17.0,18.0,44,0.00,,BKN040,0.00,295.00,VWS V14.01,2013-04-08 20:34:00,
2013-04-08 13:39:00,44.4,23.9,29.83,NNE,30,10.0,15.0,44,0.00,,BKN040,0.00,485.00,VWS V14.01,2013-04-08 20:39:00,
2013-04-08 13:44:00,45.0,24.4,29.83,North,5,7.0,21.0,44,0.00,,BKN040,0.00,346.00,VWS V14.01,2013-04-08 20:44:00,
2013-04-08 13:49:00,44.8,24.8,29.83,NW,325,17.0,21.0,45,0.00,,BKN040,0.00,301.00,VWS V14.01,2013-04-08 20:49:00,
2013-04-08 13:54:00,44.5,24.5,29.83,NW,314,12.0,20.0,45,0.00,,BKN040,0.00,492.00,VWS V14.01,2013-04-08 20:54:00,
2013-04-08 13:59:00,44.4,23.9,29.83,NNW,332,12.0,23.0,44,0.00,,BKN040,0.00,362.00,VWS V14.01,2013-04-08 20:59:00,
2013-04-08 14:04:00,44.7,24.1,29.83,NNW,346,12.0,19.0,44,0.00,,BKN050,0.00,404.00,VWS V14.01,2013-04-08 21:04:00,
2013-04-08 14:09:00,45.3,24.1,29.83,NNW,338,11.0,21.0,43,0.00,,BKN050,0.00,963.00,VWS V14.01,2013-04-08 21:09:00,
2013-04-08 14:14:00,45.9,24.7,29.83,NNW,345,17.0,21.0,43,0.00,,BKN050,0.00,410.00,VWS V14.01,2013-04-08 21:14:00,
2013-04-08 14:20:00,46.8,24.9,29.83,NNW,331,11.0,22.0,42,0.00,,BKN050,0.00,410.00,VWS V14.01,2013-04-08 21:20:00,
2013-04-08 14:25:00,46.9,25.0,29.84,NW,317,13.0,28.0,42,0.00,,BKN050,0.00,956.00,VWS V14.01,2013-04-08 21:25:00,
2013-04-08 14:30:00,47.0,24.5,29.84,North,360,17.0,24.0,41,0.00,,BKN050,0.00,962.00,VWS V14.01,2013-04-08 21:30:00,
2013-04-08 14:35:00,47.6,24.5,29.84,NNW,344,14.0,19.0,40,0.00,,BKN050,0.00,1007.00,VWS V14.01,2013-04-08 21:35:00,
2013-04-08 14:40:00,47.1,24.0,29.84,NW,325,13.0,25.0,40,0.00,,BKN050,0.00,380.00,VWS V14.01,2013-04-08 21:40:00,
2013-04-08 14:45:00,46.3,23.3,29.84,North,360,9.0,21.0,40,0.00,,BKN050,0.00,281.00,VWS V14.01,2013-04-08 21:45:00,
2013-04-08 14:50:00,46.1,23.1,29.84,NW,326,12.0,17.0,40,0.00,,BKN050,0.00,311.00,VWS V14.01,2013-04-08 21:50:00,
2013-04-08 14:55:00,46.4,22.2,29.84,NNE,13,13.0,23.0,38,0.00,,BKN050,0.00,311.00,VWS V14.01,2013-04-08 21:55:00,
2013-04-08 15:00:00,46.5,22.9,29.84,NW,323,18.0,21.0,39,0.00,,BKN050,0.00,369.00,VWS V14.01,2013-04-08 22:00:00,
2013-04-08 15:05:00,46.5,22.3,29.84,North,350,11.0,11.0,38,0.00,,BKN050,0.00,290.00,VWS V14.01,2013-04-08 22:05:00,
2013-04-08 15:10:00,47.0,23.3,29.84,NNW,338,23.0,23.0,39,0.00,,BKN050,0.00,315.00,VWS V14.01,2013-04-08 22:10:00,
2013-04-08 15:15:00,47.9,23.5,29.84,North,360,16.0,19.0,38,0.00,,BKN050,0.00,854.00,VWS V14.01,2013-04-08 22:15:00,
2013-04-08 15:20:00,47.5,21.9,29.84,North,355,11.0,12.0,36,0.00,,BKN050,0.00,772.00,VWS V14.01,2013-04-08 22:20:00,
2013-04-08 15:25:00,47.6,22.0,29.84,NNW,348,16.0,18.0,36,0.00,,BKN050,0.00,153.00,VWS V14.01,2013-04-08 22:25:00,
2013-04-08 15:30:00,48.0,20.3,29.84,NNW,348,17.0,19.0,33,0.00,,BKN050,0.00,738.00,VWS V14.01,2013-04-08 22:30:00,
2013-04-08 15:35:00,47.4,20.5,29.85,NNW,336,17.0,21.0,34,0.00,,BKN050,0.00,705.00,VWS V14.01,2013-04-08 22:35:00,
2013-04-08 15:40:00,47.5,19.9,29.84,NNW,332,17.0,20.0,33,0.00,,BKN050,0.00,682.00,VWS V14.01,2013-04-08 22:40:00,
2013-04-08 15:45:00,47.5,19.9,29.85,North,350,19.0,26.0,33,0.00,,BKN050,0.00,664.00,VWS V14.01,2013-04-08 22:45:00,
2013-04-08 15:50:00,47.7,19.3,29.85,North,355,14.0,23.0,32,0.00,,BKN050,0.00,670.00,VWS V14.01,2013-04-08 22:50:00,
2013-04-08 15:55:00,47.6,19.2,29.85,North,360,26.0,26.0,32,0.00,,BKN050,0.00,673.00,VWS V14.01,2013-04-08 22:55:00,
2013-04-08 16:00:00,47.8,18.6,29.85,NW,316,9.0,11.0,31,0.00,,BKN060,0.00,686.00,VWS V14.01,2013-04-08 23:00:00,
2013-04-08 16:05:00,47.3,19.0,29.85,NNW,336,21.0,24.0,32,0.00,,BKN060,0.00,715.00,VWS V14.01,2013-04-08 23:05:00,
2013-04-08 16:10:00,46.9,20.0,29.86,NNW,346,14.0,21.0,34,0.00,,BKN060,0.00,163.00,VWS V14.01,2013-04-08 23:10:00,
2013-04-08 16:15:00,46.6,19.0,29.85,North,355,10.0,10.0,33,0.00,,BKN060,0.00,204.00,VWS V14.01,2013-04-08 23:15:00,
2013-04-08 16:20:00,46.8,19.9,29.85,NNW,339,10.0,15.0,34,0.00,,BKN060,0.00,591.00,VWS V14.01,2013-04-08 23:20:00,
2013-04-08 16:25:00,47.8,20.1,29.85,NNW,336,20.0,22.0,33,0.00,,BKN060,0.00,594.00,VWS V14.01,2013-04-08 23:25:00,
2013-04-08 16:30:00,47.7,18.6,29.86,North,9,11.0,19.0,31,0.00,,BKN060,0.00,615.00,VWS V14.01,2013-04-08 23:30:00,
2013-04-08 16:35:00,48.3,19.1,29.86,NNW,344,15.0,15.0,31,0.00,,BKN060,0.00,684.00,VWS V14.01,2013-04-08 23:35:00,
2013-04-08 16:40:00,48.0,18.8,29.86,North,355,15.0,18.0,31,0.00,,BKN060,0.00,640.00,VWS V14.01,2013-04-08 23:40:00,
2013-04-08 16:45:00,47.9,18.7,29.86,North,350,22.0,22.0,31,0.00,,BKN060,0.00,633.00,VWS V14.01,2013-04-08 23:45:00,
2013-04-08 16:50:00,48.3,18.3,29.86,North,355,18.0,20.0,30,0.00,,BKN060,0.00,538.00,VWS V14.01,2013-04-08 23:50:00,
2013-04-08 16:55:00,48.4,17.6,29.87,North,5,13.0,18.0,29,0.00,,BKN060,0.00,524.00,VWS V14.01,2013-04-08 23:55:00,
2013-04-08 17:00:00,48.7,18.7,29.87,North,360,12.0,18.0,30,0.00,,BKN060,0.00,341.00,VWS V14.01,2013-04-09 00:00:00,
2013-04-08 17:05:00,47.8,20.8,29.88,NE,39,17.0,20.0,34,0.00,,BKN060,0.00,250.00,VWS V14.01,2013-04-09 00:05:00,
2013-04-08 17:10:00,46.4,22.2,29.87,North,5,12.0,14.0,38,0.00,,BKN060,0.00,476.00,VWS V14.01,2013-04-09 00:10:00,
2013-04-08 17:15:00,47.1,21.5,29.87,NE,43,8.0,15.0,36,0.00,,BKN060,0.00,466.00,VWS V14.01,2013-04-09 00:15:00,
2013-04-08 17:20:00,46.7,20.5,29.87,NNE,26,17.0,17.0,35,0.00,,BKN060,0.00,338.00,VWS V14.01,2013-04-09 00:20:00,
2013-04-08 17:25:00,47.4,21.1,29.88,NE,40,16.0,16.0,35,0.00,,BKN060,0.00,424.00,VWS V14.01,2013-04-09 00:25:00,
2013-04-08 17:31:00,47.7,20.0,29.88,NNW,336,17.0,20.0,33,0.00,,BKN060,0.00,422.00,VWS V14.01,2013-04-09 00:31:00,
2013-04-08 17:36:00,48.1,21.1,29.88,NNW,344,12.0,17.0,34,0.00,,BKN060,0.00,394.00,VWS V14.01,2013-04-09 00:36:00,
2013-04-08 17:41:00,48.4,19.9,29.88,NNW,345,19.0,21.0,32,0.00,,BKN060,0.00,385.00,VWS V14.01,2013-04-09 00:41:00,
2013-04-08 17:46:00,48.3,18.3,29.88,North,355,15.0,22.0,30,0.00,,BKN060,0.00,151.00,VWS V14.01,2013-04-09 00:46:00,
2013-04-08 17:51:00,47.2,18.9,29.88,NW,326,12.0,18.0,32,0.00,,BKN060,0.00,304.00,VWS V14.01,2013-04-09 00:51:00,
2013-04-08 17:56:00,48.4,19.2,29.88,NNW,347,14.0,20.0,31,0.00,,BKN060,0.00,338.00,VWS V14.01,2013-04-09 00:56:00,
2013-04-08 18:01:00,48.2,19.0,29.88,North,11,17.0,19.0,31,0.00,,BKN060,0.00,137.00,VWS V14.01,2013-04-09 01:01:00,
2013-04-08 18:06:00,47.2,18.9,29.89,NNW,342,15.0,19.0,32,0.00,,BKN060,0.00,130.00,VWS V14.01,2013-04-09 01:06:00,
2013-04-08 18:11:00,47.2,19.6,29.89,North,351,11.0,15.0,33,0.00,,BKN060,0.00,239.00,VWS V14.01,2013-04-09 01:11:00,
2013-04-08 18:16:00,47.2,19.6,29.89,NNW,338,13.0,15.0,33,0.00,,BKN060,0.00,98.00,VWS V14.01,2013-04-09 01:16:00,
2013-04-08 18:21:00,47.0,18.7,29.89,NNW,333,17.0,18.0,32,0.00,,BKN060,0.00,234.00,VWS V14.01,2013-04-09 01:21:00,
2013-04-08 18:26:00,46.7,19.1,29.90,NNW,340,13.0,22.0,33,0.00,,BKN060,0.00,202.00,VWS V14.01,2013-04-09 01:26:00,
2013-04-08 18:31:00,46.9,19.3,29.90,North,355,19.0,22.0,33,0.00,,BKN060,0.00,185.00,VWS V14.01,2013-04-09 01:31:00,
2013-04-08 18:36:00,46.7,19.1,29.90,North,355,15.0,18.0,33,0.00,,BKN060,0.00,65.00,VWS V14.01,2013-04-09 01:36:00,
2013-04-08 18:41:00,46.2,18.7,29.90,NNW,331,20.0,20.0,33,0.00,,BKN060,0.00,46.00,VWS V14.01,2013-04-09 01:41:00,
2013-04-08 18:46:00,45.8,18.4,29.90,NNW,327,17.0,21.0,33,0.00,,BKN060,0.00,49.00,VWS V14.01,2013-04-09 01:46:00,
2013-04-08 18:51:00,45.7,19.6,29.91,NNW,348,12.0,20.0,35,0.00,,BKN060,0.00,53.00,VWS V14.01,2013-04-09 01:51:00,
2013-04-08 18:57:00,45.6,20.2,29.91,North,5,12.0,17.0,36,0.00,,BKN060,0.00,28.00,VWS V14.01,2013-04-09 01:57:00,
2013-04-08 19:02:00,45.5,20.1,29.91,NW,323,9.0,16.0,36,0.00,,BKN060,0.00,26.00,VWS V14.01,2013-04-09 02:02:00,
2013-04-08 19:07:00,45.4,20.7,29.91,NNW,342,14.0,16.0,37,0.00,,BKN060,0.00,18.00,VWS V14.01,2013-04-09 02:07:00,
2013-04-08 19:12:00,45.1,20.4,29.91,NNE,22,15.0,19.0,37,0.00,,BKN060,0.00,14.00,VWS V14.01,2013-04-09 02:12:00,
2013-04-08 19:17:00,44.9,20.9,29.91,North,5,19.0,21.0,38,0.00,,BKN060,0.00,11.00,VWS V14.01,2013-04-09 02:17:00,
2013-04-08 19:22:00,44.8,21.4,29.91,North,355,13.0,22.0,39,0.00,,BKN060,0.00,5.00,VWS V14.01,2013-04-09 02:22:00,
2013-04-08 19:27:00,44.7,21.3,29.92,North,11,6.0,17.0,39,0.00,,BKN060,0.00,0.00,VWS V14.01,2013-04-09 02:27:00,
2013-04-08 19:32:00,44.6,21.2,29.92,NNW,338,14.0,19.0,39,0.00,,BKN060,0.00,0.00,VWS V14.01,2013-04-09 02:32:00,
2013-04-08 19:37:00,44.6,21.8,29.92,NNE,13,11.0,17.0,40,0.00,,BKN060,0.00,0.00,VWS V14.01,2013-04-09 02:37:00,
2013-04-08 19:42:00,44.5,21.7,29.92,NNW,338,18.0,21.0,40,0.00,,BKN060,0.00,0.00,VWS V14.01,2013-04-09 02:42:00,
2013-04-08 19:47:00,44.3,22.1,29.93,North,355,10.0,15.0,41,0.00,,BKN060,0.00,0.00,VWS V14.01,2013-04-09 02:47:00,
2013-04-08 19:52:00,44.2,22.6,29.93,NNE,13,8.0,15.0,42,0.00,,BKN060,0.00,0.00,VWS V14.01,2013-04-09 02:52:00,
2013-04-08 19:57:00,44.0,22.4,29.93,NNE,18,5.0,13.0,42,0.00,,BKN060,0.00,0.00,VWS V14.01,2013-04-09 02:57:00,
2013-04-08 20:02:00,43.7,22.7,29.93,North,355,6.0,11.0,43,0.00,,BKN070,0.00,0.00,VWS V14.01,2013-04-09 03:02:00,
2013-04-08 20:07:00,43.4,23.0,29.93,NNW,348,8.0,9.0,44,0.00,,BKN070,0.00,0.00,VWS V14.01,2013-04-09 03:07:00,
2013-04-08 20:12:00,43.3,22.9,29.94,North,5,5.0,8.0,44,0.00,,BKN070,0.00,0.00,VWS V14.01,2013-04-09 03:12:00,
2013-04-08 20:17:00,43.2,23.3,29.94,NNE,15,5.0,8.0,45,0.00,,BKN070,0.00,0.00,VWS V14.01,2013-04-09 03:17:00,
2013-04-08 20:22:00,43.1,23.2,29.94,North,360,4.0,11.0,45,0.00,,BKN070,0.00,0.00,VWS V14.01,2013-04-09 03:22:00,
2013-04-08 20:27:00,42.8,23.0,29.94,NNW,340,6.0,10.0,45,0.00,,BKN070,0.00,0.00,VWS V14.01,2013-04-09 03:27:00,
2013-04-08 20:32:00,42.5,22.7,29.95,NNE,13,4.0,8.0,45,0.00,,BKN070,0.00,0.00,VWS V14.01,2013-04-09 03:32:00,
2013-04-08 20:37:00,42.4,23.1,29.95,NNW,347,4.0,10.0,46,0.00,,BKN070,0.00,0.00,VWS V14.01,2013-04-09 03:37:00,
2013-04-08 20:42:00,42.4,22.6,29.95,North,355,4.0,10.0,45,0.00,,BKN070,0.00,0.00,VWS V14.01,2013-04-09 03:42:00,
2013-04-08 20:47:00,42.4,22.6,29.95,NNW,348,7.0,9.0,45,0.00,,BKN070,0.00,0.00,VWS V14.01,2013-04-09 03:47:00,
2013-04-08 20:53:00,42.3,22.5,29.96,NNW,344,9.0,13.0,45,0.00,,BKN070,0.00,0.00,VWS V14.01,2013-04-09 03:53:00,
2013-04-08 20:58:00,42.3,22.5,29.96,NNW,335,7.0,13.0,45,0.00,,BKN070,0.00,0.00,VWS V14.01,2013-04-09 03:58:00,
2013-04-08 21:00:00,42.4,22.6,29.97,NNW,340,8.0,13.0,45,0.00,,BKN070,0.00,0.00,VWS V14.01,2013-04-09 04:00:00,
2013-04-08 21:01:00,42.4,22.6,29.97,North,350,8.0,10.0,45,0.00,,FEW070,0.00,0.00,VWS V14.01,2013-04-09 04:01:00,
2013-04-08 21:06:00,42.2,22.4,29.97,NNW,344,10.0,13.0,45,0.00,,FEW070,0.00,0.00,VWS V14.01,2013-04-09 04:06:00,
2013-04-08 21:11:00,42.2,22.9,29.97,NNW,336,9.0,14.0,46,0.00,,FEW070,0.00,0.00,VWS V14.01,2013-04-09 04:11:00,
2013-04-08 21:17:00,42.2,22.9,29.97,North,350,10.0,15.0,46,0.00,,FEW070,0.00,0.00,VWS V14.01,2013-04-09 04:17:00,
2013-04-08 21:22:00,41.9,22.6,29.98,NNW,340,9.0,11.0,46,0.00,,FEW070,0.00,0.00,VWS V14.01,2013-04-09 04:22:00,
2013-04-08 21:27:00,41.6,22.9,29.98,North,350,12.0,14.0,47,0.00,,FEW070,0.00,0.00,VWS V14.01,2013-04-09 04:27:00,
2013-04-08 21:32:00,41.8,23.1,29.98,NNE,14,12.0,14.0,47,0.00,,FEW070,0.00,0.00,VWS V14.01,2013-04-09 04:32:00,
2013-04-08 21:37:00,41.8,23.1,29.98,NNW,335,12.0,16.0,47,0.00,,FEW070,0.00,0.00,VWS V14.01,2013-04-09 04:37:00,
2013-04-08 21:42:00,41.7,23.0,29.99,North,360,13.0,16.0,47,0.00,,FEW070,0.00,0.00,VWS V14.01,2013-04-09 04:42:00,
2013-04-08 21:47:00,41.4,23.2,29.99,North,355,11.0,12.0,48,0.00,,FEW070,0.00,0.00,VWS V14.01,2013-04-09 04:47:00,
2013-04-08 21:52:00,41.3,23.1,29.99,NNW,341,9.0,15.0,48,0.00,,FEW070,0.00,0.00,VWS V14.01,2013-04-09 04:52:00,
2013-04-08 21:57:00,41.1,23.4,30.00,NNW,336,7.0,12.0,49,0.00,,FEW070,0.00,0.00,VWS V14.01,2013-04-09 04:57:00,
2013-04-08 22:02:00,41.0,23.8,30.00,North,360,9.0,13.0,50,0.00,,FEW070,0.00,0.00,VWS V14.01,2013-04-09 05:02:00,
2013-04-08 22:07:00,41.0,23.3,30.00,NNW,346,9.0,14.0,49,0.00,,FEW070,0.00,0.00,VWS V14.01,2013-04-09 05:07:00,
2013-04-08 22:12:00,40.8,24.1,30.00,NNW,335,8.0,14.0,51,0.00,,FEW070,0.00,0.00,VWS V14.01,2013-04-09 05:12:00,
2013-04-08 22:17:00,40.6,23.9,30.00,NNW,336,10.0,12.0,51,0.00,,FEW070,0.00,0.00,VWS V14.01,2013-04-09 05:17:00,
2013-04-08 22:22:00,40.5,23.8,30.00,North,360,12.0,15.0,51,0.00,,FEW070,0.00,0.00,VWS V14.01,2013-04-09 05:22:00,
2013-04-08 22:27:00,40.7,24.0,30.00,North,360,7.0,15.0,51,0.00,,FEW070,0.00,0.00,VWS V14.01,2013-04-09 05:27:00,
2013-04-08 22:32:00,40.7,24.0,30.01,North,355,13.0,19.0,51,0.00,,FEW070,0.00,0.00,VWS V14.01,2013-04-09 05:32:00,
2013-04-08 22:37:00,40.7,23.5,30.01,North,355,18.0,19.0,50,0.00,,FEW070,0.00,0.00,VWS V14.01,2013-04-09 05:37:00,
2013-04-08 22:42:00,40.9,23.7,30.02,North,355,8.0,18.0,50,0.00,,FEW070,0.00,0.00,VWS V14.01,2013-04-09 05:42:00,
2013-04-08 22:47:00,40.6,23.9,30.02,NW,319,10.0,14.0,51,0.00,,FEW070,0.00,0.00,VWS V14.01,2013-04-09 05:47:00,
2013-04-08 22:52:00,40.4,23.7,30.02,North,355,8.0,17.0,51,0.00,,FEW070,0.00,0.00,VWS V14.01,2013-04-09 05:52:00,
2013-04-08 22:57:00,40.4,23.7,30.02,NNW,332,14.0,16.0,51,0.00,,FEW070,0.00,0.00,VWS V14.01,2013-04-09 05:57:00,
2013-04-08 23:02:00,40.2,24.0,30.02,NE,36,12.0,17.0,52,0.00,,SCT080,0.00,0.00,VWS V14.01,2013-04-09 06:02:00,
2013-04-08 23:07:00,40.1,23.9,30.02,North,355,10.0,14.0,52,0.00,,SCT080,0.00,0.00,VWS V14.01,2013-04-09 06:07:00,
2013-04-08 23:12:00,39.9,23.7,30.02,North,360,8.0,17.0,52,0.00,,SCT080,0.00,0.00,VWS V14.01,2013-04-09 06:12:00,
2013-04-08 23:17:00,39.8,23.2,30.02,North,355,14.0,18.0,51,0.00,,SCT080,0.00,0.00,VWS V14.01,2013-04-09 06:17:00,
2013-04-08 23:22:00,39.8,22.7,30.02,NNW,336,18.0,18.0,50,0.00,,SCT080,0.00,0.00,VWS V14.01,2013-04-09 06:22:00,
2013-04-08 23:27:00,39.8,22.7,30.02,North,355,10.0,17.0,50,0.00,,SCT080,0.00,0.00,VWS V14.01,2013-04-09 06:27:00,
2013-04-08 23:32:00,39.8,22.2,30.02,NNW,346,8.0,15.0,49,0.00,,SCT080,0.00,0.00,VWS V14.01,2013-04-09 06:32:00,
2013-04-08 23:37:00,39.7,22.1,30.02,NNE,17,10.0,15.0,49,0.00,,SCT080,0.00,0.00,VWS V14.01,2013-04-09 06:37:00,
2013-04-08 23:42:00,39.7,22.1,30.02,NNW,329,10.0,15.0,49,0.00,,SCT080,0.00,0.00,VWS V14.01,2013-04-09 06:42:00,
2013-04-08 23:47:00,39.4,21.8,30.02,NNW,345,10.0,15.0,49,0.00,,SCT080,0.00,0.00,VWS V14.01,2013-04-09 06:47:00,
2013-04-08 23:52:00,39.1,21.6,30.02,North,355,13.0,15.0,49,0.00,,SCT080,0.00,0.00,VWS V14.01,2013-04-09 06:52:00,
2013-04-08 23:57:00,38.6,21.1,30.03,NNW,338,11.0,14.0,49,0.00,,SCT080,0.00,0.00,VWS V14.01,2013-04-09 06:57:00,